sensor_id;sensor_type;location;lat;lon;timestamp;P1;durP1;ratioP1;P2;durP2;ratioP2
36629;SDS011;36256;42.154;23.002;2023-05-10T00:00:23;5.28;;;2.38;;
36629;SDS011;36256;42.154;23.002;2023-05-10T00:02:50;8.63;;;2.30;;
36629;SDS011;36256;42.154;23.002;2023-05-10T00:05:17;8.35;;;2.60;;
36629;SDS011;36256;42.154;23.002;2023-05-10T00:07:44;6.50;;;2.25;;
36629;SDS011;36256;42.154;23.002;2023-05-10T00:10:11;10.52;;;2.42;;
36629;SDS011;36256;42.154;23.002;2023-05-10T00:12:38;6.10;;;2.30;;
36629;SDS011;36256;42.154;23.002;2023-05-10T00:15:05;4.97;;;2.03;;
36629;SDS011;36256;42.154;23.002;2023-05-10T00:19:59;4.22;;;2.28;;
36629;SDS011;36256;42.154;23.002;2023-05-10T00:22:26;10.00;;;2.53;;
36629;SDS011;36256;42.154;23.002;2023-05-10T00:24:53;4.70;;;2.17;;
36629;SDS011;36256;42.154;23.002;2023-05-10T00:27:19;3.83;;;2.28;;
36629;SDS011;36256;42.154;23.002;2023-05-10T00:29:46;4.25;;;1.92;;
36629;SDS011;36256;42.154;23.002;2023-05-10T00:32:13;3.88;;;2.33;;
36629;SDS011;36256;42.154;23.002;2023-05-10T00:34:40;3.55;;;2.20;;
36629;SDS011;36256;42.154;23.002;2023-05-10T00:37:06;3.85;;;2.13;;
36629;SDS011;36256;42.154;23.002;2023-05-10T00:39:33;4.00;;;2.10;;
36629;SDS011;36256;42.154;23.002;2023-05-10T00:42:00;4.57;;;1.92;;
36629;SDS011;36256;42.154;23.002;2023-05-10T00:44:26;4.40;;;2.10;;
36629;SDS011;36256;42.154;23.002;2023-05-10T00:46:53;2.00;;;1.60;;
36629;SDS011;36256;42.154;23.002;2023-05-10T00:49:20;2.45;;;1.90;;
36629;SDS011;36256;42.154;23.002;2023-05-10T00:51:47;4.53;;;2.20;;
36629;SDS011;36256;42.154;23.002;2023-05-10T00:54:15;2.80;;;2.03;;
36629;SDS011;36256;42.154;23.002;2023-05-10T00:56:42;2.45;;;1.85;;
36629;SDS011;36256;42.154;23.002;2023-05-10T00:59:15;8.23;;;2.30;;
36629;SDS011;36256;42.154;23.002;2023-05-10T01:01:43;2.08;;;1.85;;
36629;SDS011;36256;42.154;23.002;2023-05-10T01:04:11;4.88;;;2.10;;
36629;SDS011;36256;42.154;23.002;2023-05-10T01:06:39;2.60;;;1.90;;
36629;SDS011;36256;42.154;23.002;2023-05-10T01:09:07;4.93;;;2.38;;
36629;SDS011;36256;42.154;23.002;2023-05-10T01:11:37;3.05;;;2.10;;
36629;SDS011;36256;42.154;23.002;2023-05-10T01:14:05;2.88;;;2.28;;
36629;SDS011;36256;42.154;23.002;2023-05-10T01:16:33;4.97;;;2.40;;
36629;SDS011;36256;42.154;23.002;2023-05-10T01:19:03;4.60;;;2.30;;
36629;SDS011;36256;42.154;23.002;2023-05-10T01:21:43;3.75;;;2.20;;
36629;SDS011;36256;42.154;23.002;2023-05-10T01:27:19;3.10;;;2.80;;
36629;SDS011;36256;42.154;23.002;2023-05-10T01:35:16;4.35;;;3.13;;
36629;SDS011;36256;42.154;23.002;2023-05-10T01:37:55;3.55;;;3.22;;
36629;SDS011;36256;42.154;23.002;2023-05-10T01:43:57;3.33;;;3.03;;
36629;SDS011;36256;42.154;23.002;2023-05-10T01:46:35;3.90;;;3.60;;
36629;SDS011;36256;42.154;23.002;2023-05-10T01:49:18;5.45;;;3.55;;
36629;SDS011;36256;42.154;23.002;2023-05-10T01:51:53;3.67;;;3.38;;
36629;SDS011;36256;42.154;23.002;2023-05-10T01:54:23;4.53;;;3.40;;
36629;SDS011;36256;42.154;23.002;2023-05-10T01:59:30;3.58;;;3.28;;
36629;SDS011;36256;42.154;23.002;2023-05-10T02:02:07;3.80;;;3.47;;
36629;SDS011;36256;42.154;23.002;2023-05-10T02:04:38;4.15;;;3.75;;
36629;SDS011;36256;42.154;23.002;2023-05-10T02:07:06;4.40;;;3.38;;
36629;SDS011;36256;42.154;23.002;2023-05-10T02:09:34;3.67;;;3.28;;
36629;SDS011;36256;42.154;23.002;2023-05-10T02:12:03;4.93;;;3.40;;
36629;SDS011;36256;42.154;23.002;2023-05-10T02:14:32;3.80;;;3.40;;
36629;SDS011;36256;42.154;23.002;2023-05-10T02:17:03;4.05;;;3.03;;
36629;SDS011;36256;42.154;23.002;2023-05-10T02:19:32;3.28;;;2.92;;
36629;SDS011;36256;42.154;23.002;2023-05-10T02:22:00;4.15;;;3.13;;
36629;SDS011;36256;42.154;23.002;2023-05-10T02:24:28;6.70;;;3.30;;
36629;SDS011;36256;42.154;23.002;2023-05-10T02:26:56;8.60;;;3.70;;
36629;SDS011;36256;42.154;23.002;2023-05-10T02:29:24;3.08;;;2.83;;
36629;SDS011;36256;42.154;23.002;2023-05-10T02:31:54;3.45;;;3.03;;
36629;SDS011;36256;42.154;23.002;2023-05-10T02:34:21;3.80;;;2.90;;
36629;SDS011;36256;42.154;23.002;2023-05-10T02:36:52;3.38;;;3.03;;
36629;SDS011;36256;42.154;23.002;2023-05-10T02:39:20;4.95;;;3.65;;
36629;SDS011;36256;42.154;23.002;2023-05-10T02:41:48;3.95;;;3.55;;
36629;SDS011;36256;42.154;23.002;2023-05-10T02:44:18;3.20;;;2.90;;
36629;SDS011;36256;42.154;23.002;2023-05-10T02:46:46;4.60;;;3.33;;
36629;SDS011;36256;42.154;23.002;2023-05-10T02:49:14;3.55;;;3.20;;
36629;SDS011;36256;42.154;23.002;2023-05-10T02:51:44;4.82;;;3.28;;
36629;SDS011;36256;42.154;23.002;2023-05-10T02:54:20;5.60;;;3.70;;
36629;SDS011;36256;42.154;23.002;2023-05-10T02:56:54;3.60;;;3.30;;
36629;SDS011;36256;42.154;23.002;2023-05-10T02:59:24;3.28;;;2.72;;
36629;SDS011;36256;42.154;23.002;2023-05-10T03:01:50;3.93;;;2.83;;
36629;SDS011;36256;42.154;23.002;2023-05-10T03:04:17;6.50;;;2.97;;
36629;SDS011;36256;42.154;23.002;2023-05-10T03:06:44;3.30;;;3.00;;
36629;SDS011;36256;42.154;23.002;2023-05-10T03:09:11;3.65;;;3.03;;
36629;SDS011;36256;42.154;23.002;2023-05-10T03:19:54;4.10;;;3.53;;
36629;SDS011;36256;42.154;23.002;2023-05-10T03:22:28;4.70;;;3.42;;
36629;SDS011;36256;42.154;23.002;2023-05-10T03:24:58;5.07;;;3.42;;
36629;SDS011;36256;42.154;23.002;2023-05-10T03:27:30;3.70;;;3.40;;
36629;SDS011;36256;42.154;23.002;2023-05-10T03:29:57;4.72;;;3.70;;
36629;SDS011;36256;42.154;23.002;2023-05-10T03:32:24;5.15;;;4.38;;
36629;SDS011;36256;42.154;23.002;2023-05-10T03:34:53;4.45;;;3.80;;
36629;SDS011;36256;42.154;23.002;2023-05-10T03:37:19;4.17;;;3.77;;
36629;SDS011;36256;42.154;23.002;2023-05-10T03:39:46;4.38;;;3.95;;
36629;SDS011;36256;42.154;23.002;2023-05-10T03:42:13;6.05;;;4.40;;
36629;SDS011;36256;42.154;23.002;2023-05-10T03:44:39;4.40;;;3.83;;
36629;SDS011;36256;42.154;23.002;2023-05-10T03:47:06;4.70;;;4.20;;
36629;SDS011;36256;42.154;23.002;2023-05-10T03:49:33;10.73;;;8.45;;
36629;SDS011;36256;42.154;23.002;2023-05-10T03:52:00;10.52;;;7.80;;
36629;SDS011;36256;42.154;23.002;2023-05-10T03:54:27;6.20;;;5.18;;
36629;SDS011;36256;42.154;23.002;2023-05-10T03:56:53;16.77;;;13.70;;
36629;SDS011;36256;42.154;23.002;2023-05-10T03:59:20;12.32;;;9.88;;
36629;SDS011;36256;42.154;23.002;2023-05-10T04:01:47;33.07;;;22.63;;
36629;SDS011;36256;42.154;23.002;2023-05-10T04:04:13;15.63;;;11.20;;
36629;SDS011;36256;42.154;23.002;2023-05-10T04:06:40;3.97;;;3.58;;
36629;SDS011;36256;42.154;23.002;2023-05-10T04:09:07;4.88;;;3.70;;
36629;SDS011;36256;42.154;23.002;2023-05-10T04:11:34;4.65;;;4.18;;
36629;SDS011;36256;42.154;23.002;2023-05-10T04:14:01;5.53;;;4.82;;
36629;SDS011;36256;42.154;23.002;2023-05-10T04:16:28;5.57;;;4.65;;
36629;SDS011;36256;42.154;23.002;2023-05-10T04:18:55;4.72;;;4.30;;
36629;SDS011;36256;42.154;23.002;2023-05-10T04:21:21;4.97;;;4.38;;
36629;SDS011;36256;42.154;23.002;2023-05-10T04:23:48;5.07;;;4.32;;
36629;SDS011;36256;42.154;23.002;2023-05-10T04:26:15;7.88;;;4.63;;
36629;SDS011;36256;42.154;23.002;2023-05-10T04:28:41;4.43;;;4.03;;
36629;SDS011;36256;42.154;23.002;2023-05-10T04:31:09;4.87;;;4.37;;
36629;SDS011;36256;42.154;23.002;2023-05-10T04:33:36;4.65;;;4.25;;
36629;SDS011;36256;42.154;23.002;2023-05-10T04:36:03;5.55;;;4.25;;
36629;SDS011;36256;42.154;23.002;2023-05-10T04:38:30;5.40;;;4.50;;
36629;SDS011;36256;42.154;23.002;2023-05-10T04:41:06;5.45;;;4.30;;
36629;SDS011;36256;42.154;23.002;2023-05-10T04:46:01;5.78;;;4.45;;
36629;SDS011;36256;42.154;23.002;2023-05-10T04:50:59;5.65;;;4.85;;
36629;SDS011;36256;42.154;23.002;2023-05-10T04:53:25;5.40;;;4.88;;
36629;SDS011;36256;42.154;23.002;2023-05-10T04:55:52;5.57;;;4.97;;
36629;SDS011;36256;42.154;23.002;2023-05-10T04:58:19;5.10;;;4.60;;
36629;SDS011;36256;42.154;23.002;2023-05-10T05:00:46;5.70;;;5.15;;
36629;SDS011;36256;42.154;23.002;2023-05-10T05:03:13;6.75;;;5.20;;
36629;SDS011;36256;42.154;23.002;2023-05-10T05:05:39;8.82;;;4.80;;
36629;SDS011;36256;42.154;23.002;2023-05-10T05:08:06;5.78;;;5.07;;
36629;SDS011;36256;42.154;23.002;2023-05-10T05:10:33;6.57;;;4.80;;
36629;SDS011;36256;42.154;23.002;2023-05-10T05:12:59;6.38;;;5.20;;
36629;SDS011;36256;42.154;23.002;2023-05-10T05:15:26;6.07;;;5.10;;
36629;SDS011;36256;42.154;23.002;2023-05-10T05:17:53;8.18;;;5.47;;
36629;SDS011;36256;42.154;23.002;2023-05-10T05:20:20;6.93;;;5.95;;
36629;SDS011;36256;42.154;23.002;2023-05-10T05:22:47;6.53;;;5.82;;
36629;SDS011;36256;42.154;23.002;2023-05-10T05:25:14;6.47;;;4.80;;
36629;SDS011;36256;42.154;23.002;2023-05-10T05:30:08;7.32;;;6.53;;
36629;SDS011;36256;42.154;23.002;2023-05-10T05:32:35;7.07;;;5.22;;
36629;SDS011;36256;42.154;23.002;2023-05-10T05:35:02;5.65;;;5.05;;
36629;SDS011;36256;42.154;23.002;2023-05-10T05:37:29;6.70;;;5.50;;
36629;SDS011;36256;42.154;23.002;2023-05-10T05:39:55;6.38;;;5.47;;
36629;SDS011;36256;42.154;23.002;2023-05-10T05:42:22;6.15;;;5.57;;
36629;SDS011;36256;42.154;23.002;2023-05-10T05:44:49;7.00;;;5.85;;
36629;SDS011;36256;42.154;23.002;2023-05-10T05:47:15;6.68;;;5.75;;
36629;SDS011;36256;42.154;23.002;2023-05-10T05:49:42;6.05;;;5.15;;
36629;SDS011;36256;42.154;23.002;2023-05-10T05:52:11;8.45;;;5.72;;
36629;SDS011;36256;42.154;23.002;2023-05-10T05:54:38;5.45;;;4.95;;
36629;SDS011;36256;42.154;23.002;2023-05-10T05:57:05;6.07;;;5.28;;
36629;SDS011;36256;42.154;23.002;2023-05-10T05:59:31;5.45;;;4.95;;
36629;SDS011;36256;42.154;23.002;2023-05-10T06:01:58;6.65;;;4.93;;
36629;SDS011;36256;42.154;23.002;2023-05-10T06:04:25;7.10;;;5.90;;
36629;SDS011;36256;42.154;23.002;2023-05-10T06:06:52;6.88;;;5.65;;
36629;SDS011;36256;42.154;23.002;2023-05-10T06:09:18;8.52;;;5.43;;
36629;SDS011;36256;42.154;23.002;2023-05-10T06:11:45;6.50;;;5.43;;
36629;SDS011;36256;42.154;23.002;2023-05-10T06:14:12;6.40;;;5.78;;
36629;SDS011;36256;42.154;23.002;2023-05-10T06:16:39;9.23;;;6.03;;
36629;SDS011;36256;42.154;23.002;2023-05-10T06:21:33;11.60;;;6.13;;
36629;SDS011;36256;42.154;23.002;2023-05-10T06:24:00;6.13;;;5.53;;
36629;SDS011;36256;42.154;23.002;2023-05-10T06:26:26;6.50;;;5.47;;
36629;SDS011;36256;42.154;23.002;2023-05-10T06:28:53;9.93;;;5.97;;
36629;SDS011;36256;42.154;23.002;2023-05-10T06:31:20;6.70;;;6.00;;
36629;SDS011;36256;42.154;23.002;2023-05-10T06:33:47;7.07;;;5.95;;
36629;SDS011;36256;42.154;23.002;2023-05-10T06:36:13;6.50;;;5.70;;
36629;SDS011;36256;42.154;23.002;2023-05-10T06:38:40;7.50;;;5.30;;
36629;SDS011;36256;42.154;23.002;2023-05-10T06:41:07;8.40;;;5.90;;
36629;SDS011;36256;42.154;23.002;2023-05-10T06:43:34;7.75;;;6.05;;
36629;SDS011;36256;42.154;23.002;2023-05-10T06:46:01;6.95;;;5.80;;
36629;SDS011;36256;42.154;23.002;2023-05-10T06:48:27;7.53;;;6.25;;
36629;SDS011;36256;42.154;23.002;2023-05-10T06:50:54;7.00;;;6.30;;
36629;SDS011;36256;42.154;23.002;2023-05-10T06:53:21;7.07;;;5.45;;
36629;SDS011;36256;42.154;23.002;2023-05-10T06:55:49;8.90;;;6.50;;
36629;SDS011;36256;42.154;23.002;2023-05-10T06:58:15;9.23;;;6.18;;
36629;SDS011;36256;42.154;23.002;2023-05-10T07:00:42;7.13;;;5.25;;
36629;SDS011;36256;42.154;23.002;2023-05-10T07:08:03;8.32;;;5.90;;
36629;SDS011;36256;42.154;23.002;2023-05-10T07:10:30;8.00;;;6.40;;
36629;SDS011;36256;42.154;23.002;2023-05-10T07:12:57;6.60;;;5.50;;
36629;SDS011;36256;42.154;23.002;2023-05-10T07:15:23;7.55;;;6.03;;
36629;SDS011;36256;42.154;23.002;2023-05-10T07:17:50;7.27;;;6.33;;
36629;SDS011;36256;42.154;23.002;2023-05-10T07:20:18;7.63;;;6.10;;
36629;SDS011;36256;42.154;23.002;2023-05-10T07:22:45;7.63;;;6.03;;
36629;SDS011;36256;42.154;23.002;2023-05-10T07:25:11;6.70;;;5.80;;
36629;SDS011;36256;42.154;23.002;2023-05-10T07:27:38;9.07;;;5.93;;
36629;SDS011;36256;42.154;23.002;2023-05-10T07:30:05;7.28;;;5.45;;
36629;SDS011;36256;42.154;23.002;2023-05-10T07:32:32;6.45;;;5.20;;
36629;SDS011;36256;42.154;23.002;2023-05-10T07:34:59;6.60;;;5.75;;
36629;SDS011;36256;42.154;23.002;2023-05-10T07:37:26;6.65;;;5.95;;
36629;SDS011;36256;42.154;23.002;2023-05-10T07:39:53;7.63;;;6.25;;
36629;SDS011;36256;42.154;23.002;2023-05-10T07:42:19;7.45;;;5.55;;
36629;SDS011;36256;42.154;23.002;2023-05-10T07:44:46;6.80;;;5.23;;
36629;SDS011;36256;42.154;23.002;2023-05-10T07:47:13;6.55;;;5.82;;
36629;SDS011;36256;42.154;23.002;2023-05-10T07:49:40;9.50;;;6.00;;
36629;SDS011;36256;42.154;23.002;2023-05-10T07:52:07;6.85;;;5.40;;
36629;SDS011;36256;42.154;23.002;2023-05-10T07:54:33;8.13;;;6.00;;
36629;SDS011;36256;42.154;23.002;2023-05-10T07:57:00;6.47;;;5.33;;
36629;SDS011;36256;42.154;23.002;2023-05-10T07:59:27;7.35;;;5.57;;
36629;SDS011;36256;42.154;23.002;2023-05-10T08:01:53;6.90;;;5.73;;
36629;SDS011;36256;42.154;23.002;2023-05-10T08:04:20;7.28;;;6.20;;
36629;SDS011;36256;42.154;23.002;2023-05-10T08:06:47;8.98;;;6.30;;
36629;SDS011;36256;42.154;23.002;2023-05-10T08:09:13;8.35;;;6.53;;
36629;SDS011;36256;42.154;23.002;2023-05-10T08:11:40;8.32;;;6.10;;
36629;SDS011;36256;42.154;23.002;2023-05-10T08:14:07;6.97;;;5.95;;
36629;SDS011;36256;42.154;23.002;2023-05-10T08:16:33;7.10;;;6.40;;
36629;SDS011;36256;42.154;23.002;2023-05-10T08:19:00;8.88;;;6.03;;
36629;SDS011;36256;42.154;23.002;2023-05-10T08:21:27;6.88;;;5.82;;
36629;SDS011;36256;42.154;23.002;2023-05-10T08:23:54;8.00;;;5.88;;
36629;SDS011;36256;42.154;23.002;2023-05-10T08:26:21;7.25;;;6.18;;
36629;SDS011;36256;42.154;23.002;2023-05-10T08:28:47;9.45;;;6.10;;
36629;SDS011;36256;42.154;23.002;2023-05-10T08:31:14;7.47;;;5.90;;
36629;SDS011;36256;42.154;23.002;2023-05-10T08:36:09;8.27;;;6.40;;
36629;SDS011;36256;42.154;23.002;2023-05-10T08:38:37;7.57;;;6.18;;
36629;SDS011;36256;42.154;23.002;2023-05-10T08:41:04;10.70;;;6.32;;
36629;SDS011;36256;42.154;23.002;2023-05-10T08:43:31;7.05;;;6.05;;
36629;SDS011;36256;42.154;23.002;2023-05-10T08:46:01;7.10;;;6.28;;
36629;SDS011;36256;42.154;23.002;2023-05-10T08:48:29;7.90;;;6.57;;
36629;SDS011;36256;42.154;23.002;2023-05-10T08:50:58;7.35;;;6.10;;
36629;SDS011;36256;42.154;23.002;2023-05-10T08:53:26;8.20;;;6.38;;
36629;SDS011;36256;42.154;23.002;2023-05-10T08:55:55;8.77;;;6.00;;
36629;SDS011;36256;42.154;23.002;2023-05-10T08:58:21;8.52;;;6.47;;
36629;SDS011;36256;42.154;23.002;2023-05-10T09:00:49;6.90;;;5.95;;
36629;SDS011;36256;42.154;23.002;2023-05-10T09:03:19;6.60;;;5.90;;
36629;SDS011;36256;42.154;23.002;2023-05-10T09:05:46;6.93;;;5.53;;
36629;SDS011;36256;42.154;23.002;2023-05-10T09:08:13;7.03;;;6.32;;
36629;SDS011;36256;42.154;23.002;2023-05-10T09:10:43;8.73;;;7.03;;
36629;SDS011;36256;42.154;23.002;2023-05-10T09:13:10;8.93;;;7.13;;
36629;SDS011;36256;42.154;23.002;2023-05-10T09:18:05;7.32;;;6.45;;
36629;SDS011;36256;42.154;23.002;2023-05-10T09:20:31;8.52;;;7.28;;
36629;SDS011;36256;42.154;23.002;2023-05-10T09:22:58;11.07;;;6.78;;
36629;SDS011;36256;42.154;23.002;2023-05-10T09:25:25;7.45;;;6.45;;
36629;SDS011;36256;42.154;23.002;2023-05-10T09:27:51;8.65;;;7.05;;
36629;SDS011;36256;42.154;23.002;2023-05-10T09:30:30;9.48;;;7.28;;
36629;SDS011;36256;42.154;23.002;2023-05-10T09:32:58;11.40;;;9.45;;
36629;SDS011;36256;42.154;23.002;2023-05-10T09:35:27;13.35;;;10.35;;
36629;SDS011;36256;42.154;23.002;2023-05-10T09:37:56;12.50;;;9.55;;
36629;SDS011;36256;42.154;23.002;2023-05-10T09:40:31;10.60;;;8.43;;
36629;SDS011;36256;42.154;23.002;2023-05-10T09:43:02;9.50;;;8.35;;
36629;SDS011;36256;42.154;23.002;2023-05-10T09:45:34;8.52;;;7.15;;
36629;SDS011;36256;42.154;23.002;2023-05-10T09:48:04;10.75;;;7.63;;
36629;SDS011;36256;42.154;23.002;2023-05-10T09:50:31;8.00;;;7.20;;
36629;SDS011;36256;42.154;23.002;2023-05-10T09:52:59;13.60;;;7.20;;
36629;SDS011;36256;42.154;23.002;2023-05-10T09:55:40;8.30;;;7.20;;
36629;SDS011;36256;42.154;23.002;2023-05-10T09:58:11;7.30;;;6.55;;
36629;SDS011;36256;42.154;23.002;2023-05-10T10:00:45;6.88;;;5.85;;
36629;SDS011;36256;42.154;23.002;2023-05-10T10:03:15;6.65;;;5.85;;
36629;SDS011;36256;42.154;23.002;2023-05-10T10:05:43;6.95;;;6.25;;
36629;SDS011;36256;42.154;23.002;2023-05-10T10:10:38;6.63;;;5.68;;
36629;SDS011;36256;42.154;23.002;2023-05-10T10:13:08;6.97;;;6.28;;
36629;SDS011;36256;42.154;23.002;2023-05-10T10:15:35;6.10;;;5.50;;
36629;SDS011;36256;42.154;23.002;2023-05-10T10:18:02;7.60;;;6.80;;
36629;SDS011;36256;42.154;23.002;2023-05-10T10:20:30;7.57;;;6.18;;
36629;SDS011;36256;42.154;23.002;2023-05-10T10:22:57;6.43;;;5.82;;
36629;SDS011;36256;42.154;23.002;2023-05-10T10:25:24;6.18;;;5.57;;
36629;SDS011;36256;42.154;23.002;2023-05-10T10:35:58;6.85;;;5.50;;
36629;SDS011;36256;42.154;23.002;2023-05-10T10:41:30;5.40;;;4.78;;
36629;SDS011;36256;42.154;23.002;2023-05-10T10:49:32;7.53;;;4.90;;
36629;SDS011;36256;42.154;23.002;2023-05-10T10:52:13;6.03;;;4.90;;
36629;SDS011;36256;42.154;23.002;2023-05-10T10:54:50;5.55;;;4.65;;
36629;SDS011;36256;42.154;23.002;2023-05-10T10:57:19;5.50;;;4.72;;
36629;SDS011;36256;42.154;23.002;2023-05-10T10:59:47;6.78;;;5.03;;
36629;SDS011;36256;42.154;23.002;2023-05-10T11:08:09;5.28;;;4.70;;
36629;SDS011;36256;42.154;23.002;2023-05-10T11:10:38;6.07;;;5.40;;
36629;SDS011;36256;42.154;23.002;2023-05-10T11:13:07;8.88;;;6.78;;
36629;SDS011;36256;42.154;23.002;2023-05-10T11:15:37;8.18;;;6.20;;
36629;SDS011;36256;42.154;23.002;2023-05-10T11:18:18;9.52;;;7.55;;
36629;SDS011;36256;42.154;23.002;2023-05-10T11:20:59;5.85;;;5.03;;
36629;SDS011;36256;42.154;23.002;2023-05-10T11:23:30;8.85;;;7.95;;
36629;SDS011;36256;42.154;23.002;2023-05-10T11:25:59;10.38;;;8.60;;
36629;SDS011;36256;42.154;23.002;2023-05-10T11:28:27;11.25;;;9.18;;
36629;SDS011;36256;42.154;23.002;2023-05-10T11:30:54;16.55;;;12.05;;
36629;SDS011;36256;42.154;23.002;2023-05-10T11:33:22;20.88;;;12.73;;
36629;SDS011;36256;42.154;23.002;2023-05-10T11:35:48;23.42;;;17.67;;
36629;SDS011;36256;42.154;23.002;2023-05-10T11:38:15;9.90;;;7.68;;
36629;SDS011;36256;42.154;23.002;2023-05-10T11:40:42;14.93;;;11.60;;
36629;SDS011;36256;42.154;23.002;2023-05-10T11:43:09;7.18;;;6.47;;
36629;SDS011;36256;42.154;23.002;2023-05-10T11:45:37;8.07;;;5.05;;
36629;SDS011;36256;42.154;23.002;2023-05-10T11:48:04;6.55;;;5.72;;
36629;SDS011;36256;42.154;23.002;2023-05-10T11:50:31;6.90;;;6.20;;
36629;SDS011;36256;42.154;23.002;2023-05-10T11:55:25;6.82;;;6.10;;
36629;SDS011;36256;42.154;23.002;2023-05-10T11:57:52;7.00;;;5.68;;
36629;SDS011;36256;42.154;23.002;2023-05-10T12:00:20;7.15;;;6.30;;
36629;SDS011;36256;42.154;23.002;2023-05-10T12:02:47;7.18;;;6.25;;
36629;SDS011;36256;42.154;23.002;2023-05-10T12:05:15;7.20;;;6.50;;
36629;SDS011;36256;42.154;23.002;2023-05-10T12:07:42;8.00;;;6.53;;
36629;SDS011;36256;42.154;23.002;2023-05-10T12:10:12;6.07;;;5.47;;
36629;SDS011;36256;42.154;23.002;2023-05-10T12:12:46;11.40;;;7.00;;
36629;SDS011;36256;42.154;23.002;2023-05-10T12:15:18;8.02;;;6.28;;
36629;SDS011;36256;42.154;23.002;2023-05-10T12:17:46;7.70;;;6.50;;
36629;SDS011;36256;42.154;23.002;2023-05-10T12:22:46;11.95;;;6.90;;
36629;SDS011;36256;42.154;23.002;2023-05-10T12:25:13;7.72;;;6.57;;
36629;SDS011;36256;42.154;23.002;2023-05-10T12:27:41;8.25;;;6.93;;
36629;SDS011;36256;42.154;23.002;2023-05-10T12:30:07;10.65;;;6.88;;
36629;SDS011;36256;42.154;23.002;2023-05-10T12:32:41;7.82;;;6.75;;
36629;SDS011;36256;42.154;23.002;2023-05-10T12:35:08;9.80;;;7.13;;
36629;SDS011;36256;42.154;23.002;2023-05-10T12:37:35;8.02;;;6.97;;
36629;SDS011;36256;42.154;23.002;2023-05-10T12:40:05;10.13;;;7.72;;
36629;SDS011;36256;42.154;23.002;2023-05-10T12:42:34;9.20;;;7.93;;
36629;SDS011;36256;42.154;23.002;2023-05-10T12:45:02;9.15;;;8.25;;
36629;SDS011;36256;42.154;23.002;2023-05-10T12:47:30;8.10;;;7.30;;
36629;SDS011;36256;42.154;23.002;2023-05-10T12:49:56;8.60;;;7.65;;
36629;SDS011;36256;42.154;23.002;2023-05-10T12:52:24;12.82;;;9.63;;
36629;SDS011;36256;42.154;23.002;2023-05-10T12:54:51;12.40;;;11.10;;
36629;SDS011;36256;42.154;23.002;2023-05-10T12:57:22;13.10;;;10.18;;
36629;SDS011;36256;42.154;23.002;2023-05-10T12:59:48;10.52;;;9.43;;
36629;SDS011;36256;42.154;23.002;2023-05-10T13:02:15;11.00;;;9.88;;
36629;SDS011;36256;42.154;23.002;2023-05-10T13:04:44;11.35;;;9.25;;
36629;SDS011;36256;42.154;23.002;2023-05-10T13:07:16;11.15;;;9.82;;
36629;SDS011;36256;42.154;23.002;2023-05-10T13:09:42;12.93;;;9.18;;
36629;SDS011;36256;42.154;23.002;2023-05-10T13:12:09;10.18;;;7.95;;
36629;SDS011;36256;42.154;23.002;2023-05-10T13:14:36;13.90;;;11.15;;
36629;SDS011;36256;42.154;23.002;2023-05-10T13:17:03;10.43;;;8.63;;
36629;SDS011;36256;42.154;23.002;2023-05-10T13:19:30;10.25;;;9.13;;
36629;SDS011;36256;42.154;23.002;2023-05-10T13:21:56;10.82;;;9.32;;
36629;SDS011;36256;42.154;23.002;2023-05-10T13:24:24;10.13;;;9.05;;
36629;SDS011;36256;42.154;23.002;2023-05-10T13:26:51;11.35;;;9.60;;
36629;SDS011;36256;42.154;23.002;2023-05-10T13:29:17;10.15;;;9.15;;
36629;SDS011;36256;42.154;23.002;2023-05-10T13:31:45;12.23;;;9.73;;
36629;SDS011;36256;42.154;23.002;2023-05-10T13:34:12;12.82;;;9.40;;
36629;SDS011;36256;42.154;23.002;2023-05-10T13:36:38;12.63;;;8.43;;
36629;SDS011;36256;42.154;23.002;2023-05-10T13:39:05;12.07;;;8.70;;
36629;SDS011;36256;42.154;23.002;2023-05-10T13:41:32;10.73;;;8.57;;
36629;SDS011;36256;42.154;23.002;2023-05-10T13:43:59;11.55;;;7.97;;
36629;SDS011;36256;42.154;23.002;2023-05-10T13:46:26;9.63;;;8.05;;
36629;SDS011;36256;42.154;23.002;2023-05-10T13:48:52;12.82;;;8.80;;
36629;SDS011;36256;42.154;23.002;2023-05-10T13:51:19;11.55;;;8.52;;
36629;SDS011;36256;42.154;23.002;2023-05-10T13:53:46;11.98;;;8.13;;
36629;SDS011;36256;42.154;23.002;2023-05-10T13:56:13;9.38;;;8.00;;
36629;SDS011;36256;42.154;23.002;2023-05-10T13:58:40;9.55;;;8.43;;
36629;SDS011;36256;42.154;23.002;2023-05-10T14:01:07;13.05;;;7.97;;
36629;SDS011;36256;42.154;23.002;2023-05-10T14:03:34;12.57;;;8.15;;
36629;SDS011;36256;42.154;23.002;2023-05-10T14:06:01;11.77;;;8.50;;
36629;SDS011;36256;42.154;23.002;2023-05-10T14:08:27;9.35;;;7.65;;
36629;SDS011;36256;42.154;23.002;2023-05-10T14:10:54;9.30;;;7.97;;
36629;SDS011;36256;42.154;23.002;2023-05-10T14:13:23;10.73;;;7.70;;
36629;SDS011;36256;42.154;23.002;2023-05-10T14:15:50;9.75;;;8.20;;
36629;SDS011;36256;42.154;23.002;2023-05-10T14:18:17;11.07;;;8.15;;
36629;SDS011;36256;42.154;23.002;2023-05-10T14:20:43;12.20;;;8.57;;
36629;SDS011;36256;42.154;23.002;2023-05-10T14:23:10;10.80;;;8.75;;
36629;SDS011;36256;42.154;23.002;2023-05-10T14:25:39;11.43;;;8.55;;
36629;SDS011;36256;42.154;23.002;2023-05-10T14:28:06;12.82;;;8.75;;
36629;SDS011;36256;42.154;23.002;2023-05-10T14:30:33;9.90;;;8.32;;
36629;SDS011;36256;42.154;23.002;2023-05-10T14:33:02;10.40;;;8.23;;
36629;SDS011;36256;42.154;23.002;2023-05-10T14:35:29;10.10;;;9.00;;
36629;SDS011;36256;42.154;23.002;2023-05-10T14:37:57;12.75;;;8.90;;
36629;SDS011;36256;42.154;23.002;2023-05-10T14:42:51;10.40;;;8.38;;
36629;SDS011;36256;42.154;23.002;2023-05-10T14:45:19;10.43;;;8.48;;
36629;SDS011;36256;42.154;23.002;2023-05-10T14:47:47;10.40;;;8.77;;
36629;SDS011;36256;42.154;23.002;2023-05-10T14:50:13;11.07;;;8.93;;
36629;SDS011;36256;42.154;23.002;2023-05-10T14:53:00;12.05;;;9.10;;
36629;SDS011;36256;42.154;23.002;2023-05-10T14:55:30;9.73;;;8.15;;
36629;SDS011;36256;42.154;23.002;2023-05-10T14:57:56;12.88;;;9.10;;
36629;SDS011;36256;42.154;23.002;2023-05-10T15:00:24;11.65;;;8.02;;
36629;SDS011;36256;42.154;23.002;2023-05-10T15:02:51;13.18;;;8.55;;
36629;SDS011;36256;42.154;23.002;2023-05-10T15:05:18;11.88;;;7.75;;
36629;SDS011;36256;42.154;23.002;2023-05-10T15:07:45;14.13;;;8.30;;
36629;SDS011;36256;42.154;23.002;2023-05-10T15:10:12;11.90;;;9.00;;
36629;SDS011;36256;42.154;23.002;2023-05-10T15:12:40;8.82;;;7.93;;
36629;SDS011;36256;42.154;23.002;2023-05-10T15:15:07;12.65;;;9.00;;
36629;SDS011;36256;42.154;23.002;2023-05-10T15:17:35;11.88;;;8.30;;
36629;SDS011;36256;42.154;23.002;2023-05-10T15:20:01;11.20;;;7.95;;
36629;SDS011;36256;42.154;23.002;2023-05-10T15:22:31;11.68;;;8.15;;
36629;SDS011;36256;42.154;23.002;2023-05-10T15:24:59;10.98;;;8.32;;
36629;SDS011;36256;42.154;23.002;2023-05-10T15:27:26;13.40;;;8.73;;
36629;SDS011;36256;42.154;23.002;2023-05-10T15:29:53;9.88;;;8.52;;
36629;SDS011;36256;42.154;23.002;2023-05-10T15:32:19;9.57;;;8.07;;
36629;SDS011;36256;42.154;23.002;2023-05-10T15:34:46;12.60;;;8.57;;
36629;SDS011;36256;42.154;23.002;2023-05-10T15:37:13;14.77;;;8.18;;
36629;SDS011;36256;42.154;23.002;2023-05-10T15:39:40;17.23;;;8.23;;
36629;SDS011;36256;42.154;23.002;2023-05-10T15:42:06;8.80;;;7.90;;
36629;SDS011;36256;42.154;23.002;2023-05-10T15:44:33;12.38;;;9.32;;
36629;SDS011;36256;42.154;23.002;2023-05-10T15:47:01;13.25;;;8.13;;
36629;SDS011;36256;42.154;23.002;2023-05-10T15:49:29;11.35;;;9.02;;
36629;SDS011;36256;42.154;23.002;2023-05-10T15:51:55;10.75;;;8.18;;